Time;durP1;ratioP1;P1;durP2;ratioP2;P2;SDS_P1;SDS_P2;PMS_P1;PMS_P2;Temp;Humidity;BMP_temperature;BMP_pressure;BME280_temperature;BME280_humidity;BME280_pressure;Samples;Min_cycle;Max_cycle;Signal;HPM_P1;HPM_P2
2022/11/30 03:42:41;;;;;;;30.00;27.92;;;;;;;10.95;69.83;102082.22;5023549;28;102200;-55
2022/11/30 03:45:09;;;;;;;19.95;18.23;;;;;;;10.98;69.57;102081.75;4972854;28;102130;-55
2022/11/30 03:47:36;;;;;;;16.38;14.93;;;;;;;10.95;69.14;102080.31;4946247;28;104300;-56
2022/11/30 03:50:03;;;;;;;17.27;15.63;;;;;;;10.95;69.53;102088.50;4945867;28;102517;-55
2022/11/30 03:52:29;;;;;;;17.13;15.32;;;;;;;10.95;69.56;102082.22;4952456;28;102104;-56
2022/11/30 03:54:56;;;;;;;17.88;16.17;;;;;;;10.96;69.89;102084.72;4952815;28;102226;-55
2022/11/30 03:57:22;;;;;;;17.98;16.60;;;;;;;10.98;69.34;102070.84;4949692;28;104058;-55
2022/11/30 03:59:50;;;;;;;19.67;17.92;;;;;;;10.97;69.35;102069.19;4961904;28;101942;-55
2022/11/30 04:02:17;;;;;;;20.67;18.98;;;;;;;10.95;69.71;102061.25;4954611;28;102094;-55
2022/11/30 04:04:43;;;;;;;22.13;20.52;;;;;;;10.96;69.88;102056.63;4952494;28;102596;-55
2022/11/30 04:07:10;;;;;;;22.02;20.05;;;;;;;10.95;69.38;102060.44;4950647;28;104185;-55
2022/11/30 04:09:36;;;;;;;22.45;20.42;;;;;;;10.96;69.32;102053.91;4948497;28;102121;-55
2022/11/30 04:12:03;;;;;;;25.35;23.65;;;;;;;10.98;69.46;102062.69;4962096;28;102511;-56
2022/11/30 04:14:29;;;;;;;25.33;23.42;;;;;;;10.96;69.67;102064.81;4945604;28;102065;-55
2022/11/30 04:16:57;;;;;;;25.95;23.88;;;;;;;10.96;69.66;102062.94;4957529;28;103858;-55
2022/11/30 04:19:23;;;;;;;26.67;24.13;;;;;;;10.97;69.57;102067.31;4955684;28;102643;-55
2022/11/30 04:21:50;;;;;;;29.35;27.05;;;;;;;10.96;68.86;102067.53;4955204;28;102613;-55
2022/11/30 04:24:17;;;;;;;31.67;29.20;;;;;;;10.98;69.53;102062.69;4970977;28;102229;-55
2022/11/30 04:26:44;;;;;;;32.22;29.70;;;;;;;10.99;69.69;102061.59;4971346;28;103834;-55
2022/11/30 04:29:11;;;;;;;28.88;26.85;;;;;;;10.99;69.22;102077.94;4970704;28;102193;-55
2022/11/30 04:31:37;;;;;;;33.47;30.98;;;;;;;11.00;69.54;102074.16;4967464;28;102359;-55
2022/11/30 04:34:05;;;;;;;33.95;31.65;;;;;;;11.01;69.50;102081.25;4958709;28;102821;-54
2022/11/30 04:36:32;;;;;;;33.47;31.17;;;;;;;11.01;69.13;102081.25;4955750;28;104150;-55
2022/11/30 04:38:59;;;;;;;31.25;29.10;;;;;;;11.00;69.46;102087.78;4986979;28;102256;-55
2022/11/30 04:41:25;;;;;;;33.15;30.95;;;;;;;11.00;69.33;102085.88;4983500;28;102011;-55
2022/11/30 04:43:52;;;;;;;38.50;35.90;;;;;;;11.00;69.41;102095.97;4957247;28;102746;-55
2022/11/30 04:46:18;;;;;;;39.63;37.08;;;;;;;10.99;69.20;102099.72;4955964;28;103864;-55
2022/11/30 04:48:45;;;;;;;38.95;36.33;;;;;;;10.98;69.39;102098.09;4955827;28;102321;-55
2022/11/30 04:51:13;;;;;;;36.17;33.67;;;;;;;10.99;69.63;102105.19;4956062;28;102575;-55
2022/11/30 04:53:39;;;;;;;36.90;34.47;;;;;;;11.02;69.11;102115.59;4957891;28;102226;-56
2022/11/30 04:56:07;;;;;;;39.75;37.40;;;;;;;11.01;69.31;102119.41;4972443;28;103843;-55
2022/11/30 04:58:33;;;;;;;41.85;39.30;;;;;;;10.99;69.70;102126.97;4949204;28;102074;-55
2022/11/30 05:01:00;;;;;;;40.58;37.88;;;;;;;10.99;69.23;102124.25;4955814;28;102940;-56
2022/11/30 05:03:26;;;;;;;43.13;40.25;;;;;;;10.99;69.59;102125.06;4963070;28;102402;-55
2022/11/30 05:05:53;;;;;;;39.78;37.17;;;;;;;11.00;69.45;102125.94;4959002;28;104235;-55
2022/11/30 05:08:21;;;;;;;40.60;38.13;;;;;;;11.00;69.13;102131.38;4970959;28;102154;-55
2022/11/30 05:10:51;;;;;;;36.55;34.05;;;;;;;11.00;69.37;102131.38;4955750;28;102196;-56
2022/11/30 05:13:18;;;;;;;40.70;38.05;;;;;;;11.01;69.42;102135.75;4966313;28;102254;-55
2022/11/30 05:15:45;;;;;;;41.05;38.28;;;;;;;11.01;68.93;102133.03;4955216;28;103987;-55
2022/11/30 05:18:11;;;;;;;38.45;36.08;;;;;;;11.01;69.19;102125.69;4974515;28;102394;-55
2022/11/30 05:20:38;;;;;;;41.17;38.40;;;;;;;11.00;69.06;102134.09;4961744;28;102294;-59
2022/11/30 05:23:04;;;;;;;43.13;40.60;;;;;;;11.00;69.21;102139.56;4969243;28;102409;-55
2022/11/30 05:25:32;;;;;;;42.85;40.15;;;;;;;10.99;69.42;102132.41;4959157;28;103864;-55
2022/11/30 05:27:58;;;;;;;45.20;42.25;;;;;;;11.01;69.50;102135.75;4952313;28;103653;-56
2022/11/30 05:30:25;;;;;;;44.63;41.70;;;;;;;10.99;69.19;102132.41;4954593;28;102369;-55
2022/11/30 05:32:52;;;;;;;41.70;39.10;;;;;;;10.99;69.24;102143.31;4957025;28;102602;-55
2022/11/30 05:35:19;;;;;;;42.33;39.45;;;;;;;11.01;68.96;102136.56;4955435;28;103930;-55
2022/11/30 05:37:45;;;;;;;47.30;44.05;;;;;;;10.98;69.49;102137.03;4964447;28;102208;-55
2022/11/30 05:40:12;;;;;;;41.53;38.97;;;;;;;10.99;69.43;102138.69;4956448;28;102373;-56
2022/11/30 05:42:40;;;;;;;39.53;37.03;;;;;;;11.00;69.22;102147.72;4956139;28;102362;-56
2022/11/30 05:45:08;;;;;;;43.55;40.95;;;;;;;11.00;69.31;102150.44;4954777;28;104131;-55
2022/11/30 05:47:34;;;;;;;41.70;39.00;;;;;;;11.01;69.59;102149.38;4947896;28;102521;-55
2022/11/30 05:50:01;;;;;;;47.63;44.55;;;;;;;11.00;68.96;102148.53;4949560;28;102116;-56
2022/11/30 05:52:28;;;;;;;41.70;39.00;;;;;;;11.00;69.28;102136.81;4956939;28;102371;-55
2022/11/30 05:54:55;;;;;;;44.70;41.83;;;;;;;10.99;69.32;102135.97;4951707;28;104059;-55
2022/11/30 05:57:21;;;;;;;41.88;39.17;;;;;;;10.98;69.46;102147.13;4961201;28;102101;-55
2022/11/30 05:59:49;;;;;;;42.63;39.80;;;;;;;10.98;69.48;102153.38;4974380;28;102558;-55
2022/11/30 06:02:15;;;;;;;44.58;41.80;;;;;;;10.99;69.32;102155.03;4956368;28;102448;-55
2022/11/30 06:04:42;;;;;;;43.45;40.67;;;;;;;10.97;69.13;102153.66;4950804;28;103805;-55
2022/11/30 06:07:10;;;;;;;45.17;42.30;;;;;;;11.00;68.75;102155.91;4948704;28;102165;-55
2022/11/30 06:09:37;;;;;;;44.67;41.67;;;;;;;11.01;69.14;102163.00;4954005;28;102555;-54
2022/11/30 06:12:04;;;;;;;44.63;41.88;;;;;;;11.00;69.06;102155.91;4949566;28;102439;-55
2022/11/30 06:14:32;;;;;;;40.80;38.42;;;;;;;11.00;69.04;102155.91;4951161;28;103924;-55
2022/11/30 06:16:59;;;;;;;44.35;41.45;;;;;;;10.99;69.11;102163.22;4966012;28;102220;-54
2022/11/30 06:19:26;;;;;;;45.97;43.10;;;;;;;10.98;68.77;102169.72;4959619;28;102653;-55
2022/11/30 06:21:52;;;;;;;43.58;40.95;;;;;;;10.99;69.47;102171.38;4957019;28;102261;-55
2022/11/30 06:24:19;;;;;;;48.10;45.10;;;;;;;11.00;69.22;102169.50;4954873;28;104050;-55
2022/11/30 06:26:46;;;;;;;43.05;40.30;;;;;;;11.02;68.95;102175.53;4961465;28;102041;-55
2022/11/30 06:29:12;;;;;;;46.10;43.33;;;;;;;11.00;68.67;102166.78;4973897;28;102209;-55
2022/11/30 06:31:39;;;;;;;48.15;45.17;;;;;;;10.99;69.07;102171.38;4957921;28;103946;-55
2022/11/30 06:34:07;;;;;;;44.65;41.78;;;;;;;11.00;69.05;102174.97;4962023;28;103906;-55
2022/11/30 06:36:34;;;;;;;43.45;40.85;;;;;;;10.98;68.86;102185.25;4954638;28;102222;-56
2022/11/30 06:39:01;;;;;;;41.80;39.08;;;;;;;11.00;69.35;102188.59;4967833;28;102991;-56
2022/11/30 06:41:28;;;;;;;46.75;43.67;;;;;;;10.99;68.53;102170.56;4959741;28;102693;-55
2022/11/30 06:43:54;;;;;;;40.53;37.97;;;;;;;10.98;69.16;102168.91;4953670;28;103933;-55
2022/11/30 06:46:21;;;;;;;38.03;35.47;;;;;;;10.97;69.14;102170.81;4950767;28;102530;-55
2022/11/30 06:48:51;;;;;;;42.83;40.17;;;;;;;10.98;68.95;102175.19;4951090;28;102529;-55
2022/11/30 06:51:18;;;;;;;44.88;42.17;;;;;;;10.99;68.65;102176.00;4949424;28;102673;-55
2022/11/30 06:53:45;;;;;;;43.67;40.92;;;;;;;10.97;69.17;102175.44;4969390;28;104467;-55
2022/11/30 06:56:12;;;;;;;41.25;38.50;;;;;;;10.97;69.07;102172.72;4959335;28;102587;-55
2022/11/30 06:58:39;;;;;;;42.22;39.40;;;;;;;10.98;68.63;102174.34;4969596;28;102325;-55
2022/11/30 07:01:07;;;;;;;41.80;39.38;;;;;;;10.98;68.67;102174.34;4970853;28;102502;-55
2022/11/30 07:03:33;;;;;;;40.67;38.20;;;;;;;10.98;68.75;102179.81;4955871;28;103879;-55
2022/11/30 07:06:00;;;;;;;41.20;38.65;;;;;;;10.98;68.99;102172.47;4953822;28;102795;-57
2022/11/30 07:08:28;;;;;;;40.58;38.08;;;;;;;10.98;68.86;102161.56;4955732;28;102020;-55
2022/11/30 07:10:54;;;;;;;40.22;37.63;;;;;;;11.00;68.58;102166.78;4949881;28;102947;-55
2022/11/30 07:13:25;;;;;;;42.05;39.53;;;;;;;11.00;68.58;102164.91;4948037;28;104412;-56
2022/11/30 07:15:51;;;;;;;43.45;40.88;;;;;;;11.00;69.06;102153.16;4950994;28;102746;-55
2022/11/30 07:18:18;;;;;;;39.78;37.20;;;;;;;10.97;68.78;102153.66;4949047;28;102200;-55
2022/11/30 07:20:44;;;;;;;46.15;43.15;;;;;;;10.97;68.62;102159.09;4958439;28;102260;-55
2022/11/30 07:26:10;;;;;;;41.42;38.88;;;;;;;10.95;68.61;102163.94;4957983;28;102578;-55
2022/11/30 07:28:39;;;;;;;37.13;34.88;;;;;;;10.93;68.33;102174.25;4948130;28;102171;-55
2022/11/30 07:31:14;;;;;;;38.47;36.05;;;;;;;10.91;68.46;102171.75;4951551;28;102731;-55
2022/11/30 07:33:41;;;;;;;37.47;35.22;;;;;;;10.92;68.97;102164.41;4964926;28;104151;-55
2022/11/30 07:36:08;;;;;;;40.75;38.28;;;;;;;10.94;68.44;102159.56;4964059;28;102867;-55
2022/11/30 07:38:34;;;;;;;35.92;33.60;;;;;;;10.96;68.86;102165.59;4960044;28;104560;-55
2022/11/30 07:41:03;;;;;;;41.65;39.17;;;;;;;10.95;68.29;102164.75;4949682;28;102629;-55
2022/11/30 07:43:30;;;;;;;39.63;37.17;;;;;;;10.97;68.79;102167.25;4947738;28;103023;-55
2022/11/30 07:45:56;;;;;;;44.28;41.50;;;;;;;10.96;68.50;102165.59;4942712;28;102032;-55
2022/11/30 07:48:23;;;;;;;39.05;36.58;;;;;;;10.95;68.80;102163.94;4943237;28;102413;-55
2022/11/30 07:50:49;;;;;;;39.28;36.90;;;;;;;10.94;68.88;102162.28;4944774;28;102516;-55
2022/11/30 07:53:16;;;;;;;41.33;38.60;;;;;;;10.94;68.78;102156.84;4927006;28;104011;-55
2022/11/30 07:55:43;;;;;;;43.33;40.72;;;;;;;10.93;68.28;102164.19;4933829;28;102468;-55
2022/11/30 07:58:11;;;;;;;40.53;38.17;;;;;;;10.94;68.81;102163.13;4936595;28;102286;-55
2022/11/30 08:00:38;;;;;;;41.83;39.38;;;;;;;10.95;68.19;102169.38;4933667;28;102105;-55
2022/11/30 08:03:04;;;;;;;40.25;37.65;;;;;;;10.95;68.55;102166.66;4930717;28;103657;-55
2022/11/30 08:05:31;;;;;;;40.35;37.97;;;;;;;10.97;68.54;102178.16;4931961;28;102216;-55
2022/11/30 08:07:58;;;;;;;41.13;38.70;;;;;;;10.94;68.63;102173.19;4934125;28;102150;-55
2022/11/30 08:10:25;;;;;;;40.40;37.60;;;;;;;10.95;68.79;102180.28;4934827;28;102532;-55
2022/11/30 08:12:52;;;;;;;40.00;37.53;;;;;;;10.96;68.40;102181.94;4933481;28;104087;-55
2022/11/30 08:15:20;;;;;;;38.00;35.65;;;;;;;10.94;68.39;102190.34;4932678;28;102033;-55
2022/11/30 12:08:56;;;;;;;65.88;62.20;;;;;;;10.89;68.13;102197.56;5022510;27;102310;-55
2022/11/30 12:11:28;;;;;;;33.53;31.08;;;;;;;10.92;67.73;102213.44;5001205;28;102630;-55
2022/11/30 12:13:58;;;;;;;28.50;26.58;;;;;;;10.91;67.74;102206.34;5002979;27;104069;-55
2022/11/30 12:16:39;;;;;;;24.70;23.13;;;;;;;10.92;67.84;102202.53;5011461;27;102095;-55
2022/11/30 12:19:13;;;;;;;22.52;21.08;;;;;;;10.89;67.56;102214.75;5009889;28;102216;-55
2022/11/30 12:21:59;;;;;;;22.83;21.27;;;;;;;10.91;67.91;102211.78;4992791;27;102159;-55
2022/11/30 12:24:57;;;;;;;22.33;20.80;;;;;;;10.91;67.28;102212.63;4987272;28;108376;-56
2022/11/30 12:27:37;;;;;;;21.50;20.05;;;;;;;10.92;67.51;102208.00;4989781;28;103288;-55
2022/11/30 12:30:12;;;;;;;25.30;23.58;;;;;;;10.93;67.85;102215.13;4997479;28;102728;-55
2022/11/30 12:33:04;;;;;;;28.15;26.25;;;;;;;10.93;67.63;102212.38;5001325;28;102516;-55
2022/11/30 12:35:42;;;;;;;24.38;22.65;;;;;;;10.93;67.58;102220.56;4999604;28;104468;-55
2022/11/30 12:38:20;;;;;;;26.00;24.27;;;;;;;10.93;67.78;102215.13;4995772;27;102044;-56
2022/11/30 12:40:55;;;;;;;27.40;25.55;;;;;;;10.93;67.46;102220.56;4997273;28;102377;-55
2022/11/30 12:43:32;;;;;;;30.05;27.98;;;;;;;10.91;67.73;102233.56;4995270;28;103200;-55
2022/11/30 12:46:11;;;;;;;31.48;29.45;;;;;;;10.91;67.58;102244.47;4997604;28;103986;-56
2022/11/30 12:48:46;;;;;;;28.00;26.27;;;;;;;10.92;67.70;102243.41;4999624;27;101978;-55
2022/11/30 12:51:19;;;;;;;34.55;32.55;;;;;;;10.89;67.84;102241.13;4996224;28;102163;-56
2022/11/30 12:53:54;;;;;;;29.67;27.70;;;;;;;10.91;67.83;102228.13;5007655;27;102666;-55
2022/11/30 12:56:34;;;;;;;33.38;31.40;;;;;;;10.91;67.66;102228.94;4990504;28;103910;-56
2022/11/30 12:59:14;;;;;;;31.80;29.92;;;;;;;10.91;67.69;102234.41;4994660;28;102481;-55
2022/11/30 13:02:00;;;;;;;32.60;30.55;;;;;;;10.91;67.34;102228.13;4995880;28;102418;-56
2022/11/30 13:04:31;;;;;;;35.80;33.63;;;;;;;10.95;67.51;102234.75;4988670;28;102341;-55
2022/11/30 13:07:01;;;;;;;35.83;33.55;;;;;;;10.94;67.47;102235.84;4981982;28;104132;-55
2022/11/30 13:09:34;;;;;;;35.08;32.85;;;;;;;10.92;67.64;102246.13;4979949;28;102254;-55
2022/11/30 13:12:06;;;;;;;38.08;35.72;;;;;;;10.92;67.93;102240.69;4976616;28;102071;-55
2022/11/30 13:14:34;;;;;;;34.72;32.53;;;;;;;10.94;67.23;102233.09;4976055;28;102108;-55
2022/11/30 13:17:03;;;;;;;35.28;33.15;;;;;;;10.95;67.53;102237.47;4979578;28;104070;-55
2022/11/30 13:19:45;;;;;;;35.75;33.45;;;;;;;10.95;67.26;102246.47;4980199;28;102528;-55
2022/11/30 13:22:21;;;;;;;35.15;32.92;;;;;;;10.96;67.49;102241.84;4987564;28;102311;-55
2022/11/30 13:25:02;;;;;;;36.00;33.87;;;;;;;10.94;67.85;102244.81;4979844;28;102818;-56
2022/11/30 13:27:36;;;;;;;34.63;32.47;;;;;;;10.94;67.56;102238.56;4988382;28;104288;-55
2022/11/30 13:30:19;;;;;;;33.28;30.90;;;;;;;10.96;67.62;102236.41;4985157;28;102466;-55
2022/11/30 13:32:46;;;;;;;37.70;35.20;;;;;;;10.95;67.73;102224.69;4967018;28;102711;-56
2022/11/30 13:35:40;;;;;;;38.05;35.60;;;;;;;10.94;67.65;102238.56;4987055;28;102115;-55
2022/11/30 13:38:16;;;;;;;33.35;31.00;;;;;;;10.94;67.29;102236.66;4985118;28;103897;-55
2022/11/30 13:40:55;;;;;;;35.55;33.30;;;;;;;10.96;67.79;102236.41;4970811;28;102593;-55
2022/11/30 13:43:27;;;;;;;38.42;35.88;;;;;;;10.95;67.54;102237.47;4973144;28;102726;-55
2022/11/30 13:46:14;;;;;;;34.35;32.17;;;;;;;10.92;68.06;102235.22;4979882;28;106594;-55
2022/11/30 13:48:42;;;;;;;34.40;32.30;;;;;;;10.92;67.96;102236.06;4975932;28;103986;-55
2022/11/30 13:51:09;;;;;;;37.13;34.85;;;;;;;10.90;67.51;102232.75;4973399;28;102844;-55
2022/11/30 13:53:37;;;;;;;38.90;36.53;;;;;;;10.90;67.98;102231.94;4970572;28;104653;-55
2022/11/30 13:56:26;;;;;;;38.80;36.33;;;;;;;10.91;67.54;102233.56;4975275;28;102423;-55
2022/11/30 13:59:29;;;;;;;35.53;33.17;;;;;;;10.93;67.70;102236.91;4984388;28;107999;-55
2022/11/30 14:02:29;;;;;;;35.00;32.78;;;;;;;10.94;67.39;102230.38;4979149;28;102185;-55
2022/11/30 14:08:17;;;;;;;36.53;34.28;;;;;;;10.93;67.23;102243.19;5069866;27;102935;-55
2022/11/30 16:34:11;;;;;;;84.55;79.95;;;;;;;10.78;67.52;102268.16;5067409;27;102326;-54
2022/11/30 16:36:38;;;;;;;47.90;44.75;;;;;;;10.75;67.96;102265.91;5033136;27;102222;-54
2022/11/30 16:39:04;;;;;;;40.40;37.95;;;;;;;10.77;67.68;102265.66;5031885;27;104012;-54
2022/11/30 16:41:34;;;;;;;29.58;27.60;;;;;;;10.76;67.92;102264.81;5024016;27;102186;-54
2022/11/30 16:44:00;;;;;;;;;;;;;;;10.76;67.60;102256.66;5029624;27;102342;-54
2022/11/30 16:46:28;;;;;;;20.85;19.25;;;;;;;10.76;68.11;102259.38;5023480;27;102984;-55
2022/11/30 16:48:55;;;;;;;27.15;25.40;;;;;;;10.77;68.01;102257.47;5025219;27;103915;-54
2022/11/30 16:51:26;;;;;;;28.20;26.35;;;;;;;10.77;67.60;102265.66;5013475;27;102493;-54
2022/11/30 16:53:52;;;;;;;27.73;25.65;;;;;;;10.78;67.62;102260.00;5036942;27;102296;-55
2022/11/30 16:56:22;;;;;;;28.23;26.02;;;;;;;10.78;67.74;102254.53;5032291;27;102713;-54
2022/11/30 16:58:49;;;;;;;31.33;28.90;;;;;;;10.80;67.36;102254.28;5031487;27;103795;-54
2022/11/30 17:01:19;;;;;;;32.85;30.67;;;;;;;10.81;67.64;102248.59;5022612;27;102039;-54
2022/11/30 17:03:48;;;;;;;30.45;28.27;;;;;;;10.82;67.89;102253.00;5023772;27;103226;-54
2022/11/30 17:06:17;;;;;;;32.33;30.23;;;;;;;10.80;67.24;102257.84;5021919;27;102771;-54
2022/11/30 17:08:46;;;;;;;29.35;27.42;;;;;;;10.81;67.39;102261.38;5032950;27;104063;-55
2022/11/30 17:11:18;;;;;;;30.53;28.60;;;;;;;10.79;67.39;102248.03;5039428;27;103531;-54
2022/11/30 17:13:45;;;;;;;30.98;28.60;;;;;;;10.77;67.54;102258.31;5039298;27;102163;-54
2022/11/30 17:16:12;;;;;;;35.45;33.13;;;;;;;10.81;67.71;102264.94;5044766;27;102278;-54
2022/11/30 17:18:39;;;;;;;38.92;36.55;;;;;;;10.83;67.73;102248.38;5046451;27;103931;-54
2022/11/30 17:21:06;;;;;;;37.08;34.22;;;;;;;10.83;67.44;102232.03;5025549;27;102159;-55
2022/11/30 17:23:33;;;;;;;36.35;33.88;;;;;;;10.80;67.16;102222.44;5029647;27;102428;-54
2022/11/30 17:26:01;;;;;;;37.20;34.75;;;;;;;10.76;67.47;102221.25;5039716;27;102190;-54
2022/11/30 17:28:27;;;;;;;35.83;33.47;;;;;;;10.79;67.49;102228.97;5038370;27;103907;-54
2022/11/30 17:30:54;;;;;;;38.60;35.97;;;;;;;10.82;67.63;102230.38;5043099;27;102748;-54
2022/11/30 17:33:20;;;;;;;36.63;33.90;;;;;;;10.82;67.18;102247.56;5019018;27;102131;-54
2022/11/30 17:35:47;;;;;;;39.13;36.45;;;;;;;10.83;67.22;102249.19;5007667;28;103557;-55
2022/11/30 17:38:16;;;;;;;34.60;32.42;;;;;;;10.86;67.47;102249.81;5008789;28;103962;-54
2022/11/30 17:40:42;;;;;;;36.72;34.42;;;;;;;10.87;67.29;102244.13;5007877;28;102303;-54
2022/11/30 17:43:10;;;;;;;36.53;34.10;;;;;;;10.87;66.99;102255.00;5000910;28;102475;-55
2022/11/30 17:45:38;;;;;;;33.00;30.85;;;;;;;10.83;67.51;102248.38;4999872;28;102178;-54
2022/11/30 17:48:05;;;;;;;36.00;33.73;;;;;;;10.85;67.00;102234.50;5004095;28;103918;-54
2022/11/30 17:50:32;;;;;;;38.13;35.65;;;;;;;10.85;67.58;102237.25;5007766;28;102287;-54
2022/11/30 17:52:58;;;;;;;36.63;34.22;;;;;;;10.83;67.41;102235.59;4998023;28;102135;-55
2022/11/30 17:55:25;;;;;;;38.15;35.55;;;;;;;10.84;67.26;102239.13;4998527;28;102344;-54
2022/11/30 17:57:52;;;;;;;38.33;35.67;;;;;;;10.84;67.14;102239.13;4996152;28;104095;-54
2022/11/30 18:00:21;;;;;;;38.22;35.63;;;;;;;10.80;67.14;102236.06;5000964;27;102601;-54
2022/11/30 18:02:49;;;;;;;37.50;35.03;;;;;;;10.82;67.54;102247.56;4999999;27;102623;-54
2022/11/30 18:05:16;;;;;;;32.35;30.25;;;;;;;10.85;67.69;102235.34;4999337;28;102225;-54
2022/11/30 18:07:42;;;;;;;34.17;31.77;;;;;;;10.85;67.53;102248.13;5001674;27;104091;-54
2022/11/30 18:10:10;;;;;;;38.35;35.53;;;;;;;10.85;67.20;102245.41;5000942;28;102222;-54
2022/11/30 18:12:36;;;;;;;37.15;34.85;;;;;;;10.89;66.92;102238.41;4998398;28;102576;-55
2022/11/30 18:15:04;;;;;;;38.13;35.70;;;;;;;10.85;67.14;102238.06;5001637;27;102252;-54
2022/11/30 18:17:32;;;;;;;41.65;38.97;;;;;;;10.86;67.00;102236.19;4999054;28;104326;-54
2022/11/30 18:19:58;;;;;;;37.15;34.60;;;;;;;10.87;67.58;102244.13;5001318;28;102607;-54
2022/11/30 18:22:25;;;;;;;35.00;32.83;;;;;;;10.87;67.18;102248.75;4998145;28;102182;-54
2022/11/30 18:24:51;;;;;;;35.83;33.63;;;;;;;10.88;67.33;102256.66;4999324;28;102824;-54
2022/11/30 18:27:18;;;;;;;38.58;36.17;;;;;;;10.88;67.19;102244.94;5000824;28;104370;-54
2022/11/30 18:29:45;;;;;;;38.88;36.28;;;;;;;10.88;66.98;102253.09;5002184;28;102464;-54
2022/11/30 18:32:11;;;;;;;36.78;34.47;;;;;;;10.88;66.96;102256.66;5000665;28;102160;-54
2022/11/30 18:34:40;;;;;;;36.55;34.15;;;;;;;10.88;67.31;102264.00;5000411;27;102567;-54
2022/11/30 18:37:06;;;;;;;36.97;34.50;;;;;;;10.85;67.19;102250.84;4998763;28;103965;-54
2022/11/30 18:39:32;;;;;;;36.40;33.92;;;;;;;10.88;67.08;102244.94;5001882;28;102110;-54
2022/11/30 18:41:59;;;;;;;38.85;36.20;;;;;;;10.88;66.99;102234.03;5000183;28;102481;-55
2022/11/30 18:44:25;;;;;;;42.50;39.78;;;;;;;10.87;67.54;102237.84;4999990;28;102253;-54
2022/11/30 18:46:52;;;;;;;37.92;35.30;;;;;;;10.87;67.04;102243.28;4999614;28;103900;-55
2022/11/30 18:49:20;;;;;;;40.72;38.28;;;;;;;10.88;67.21;102245.75;4997292;28;102477;-54
2022/11/30 18:51:47;;;;;;;35.97;33.50;;;;;;;10.87;67.22;102243.28;5000659;28;102747;-54
2022/11/30 18:54:14;;;;;;;31.33;29.27;;;;;;;10.83;67.34;102238.31;4980739;28;102536;-54
2022/11/30 18:56:40;;;;;;;32.80;30.20;;;;;;;10.83;67.40;102242.94;5003169;28;103856;-55
2022/11/30 18:59:11;;;;;;;36.25;33.85;;;;;;;10.85;66.92;102257.13;4998801;28;102816;-54
2022/11/30 19:01:37;;;;;;;33.28;30.90;;;;;;;10.86;66.94;102266.16;5000793;28;102363;-55
2022/11/30 19:04:05;;;;;;;34.70;32.38;;;;;;;10.89;67.19;102263.78;4999597;28;102217;-54
2022/11/30 19:06:32;;;;;;;34.37;31.70;;;;;;;10.89;67.41;102262.94;5000985;28;104246;-54
2022/11/30 19:09:03;;;;;;;32.95;30.65;;;;;;;10.86;67.30;102257.97;5000109;28;102031;-55
2022/11/30 19:11:32;;;;;;;32.97;30.45;;;;;;;10.88;67.12;102261.28;4998823;28;102517;-54
2022/11/30 19:13:59;;;;;;;33.17;30.92;;;;;;;10.90;66.79;102261.88;5011326;28;102578;-54
2022/11/30 19:16:27;;;;;;;35.30;32.88;;;;;;;10.89;66.90;102262.94;4985818;28;103965;-54
2022/11/30 19:18:54;;;;;;;34.80;32.20;;;;;;;10.88;67.42;102261.28;5001031;28;102225;-54
2022/11/30 19:21:22;;;;;;;32.50;30.20;;;;;;;10.88;66.81;102266.72;5004402;28;102383;-54
2022/11/30 19:23:49;;;;;;;32.90;30.30;;;;;;;10.86;67.09;102274.31;5015700;27;102140;-54
2022/11/30 19:26:18;;;;;;;33.20;30.95;;;;;;;10.88;67.12;102272.19;5005639;28;103935;-54
2022/11/30 19:28:45;;;;;;;35.95;33.58;;;;;;;10.87;66.83;102265.91;4996203;28;102526;-54
2022/11/30 19:31:13;;;;;;;31.67;29.48;;;;;;;10.88;67.77;102266.72;5001974;28;102388;-54
2022/11/30 19:33:42;;;;;;;32.00;29.47;;;;;;;10.89;67.37;102280.13;5011457;28;102167;-54
2022/11/30 19:36:12;;;;;;;31.87;29.47;;;;;;;10.89;67.15;102290.16;5019545;27;104220;-54
2022/11/30 19:38:39;;;;;;;31.00;28.92;;;;;;;10.89;67.14;102290.16;5015727;27;102459;-54
2022/11/30 19:41:06;;;;;;;33.22;30.75;;;;;;;10.89;67.04;102287.44;5014179;28;102848;-54
2022/11/30 19:43:34;;;;;;;33.22;30.90;;;;;;;10.86;67.18;102279.78;5026000;27;102378;-54
2022/11/30 19:46:05;;;;;;;29.73;27.55;;;;;;;10.85;67.31;102278.09;5020625;28;104098;-54
2022/11/30 19:48:31;;;;;;;31.85;29.77;;;;;;;10.85;67.36;102273.47;5028928;27;102277;-53
2022/11/30 19:50:58;;;;;;;33.13;30.73;;;;;;;10.86;67.32;102279.78;5025129;27;102743;-55
2022/11/30 19:53:26;;;;;;;30.70;28.40;;;;;;;10.86;66.79;102274.31;5022745;27;102258;-54
2022/11/30 19:55:53;;;;;;;31.42;29.10;;;;;;;10.86;67.55;102274.31;5029363;27;103930;-54
2022/11/30 19:58:19;;;;;;;30.30;27.90;;;;;;;10.85;67.09;102280.81;5023375;27;101996;-54
2022/11/30 20:00:48;;;;;;;33.70;31.33;;;;;;;10.86;67.62;102272.44;5026875;27;102852;-54
2022/11/30 20:03:16;;;;;;;32.88;30.58;;;;;;;10.87;67.29;102270.53;5034738;27;102644;-54
